createdAt,value
2019-03-12T00:00:11.986Z,0.00
2019-03-12T00:01:12.025Z,0.00
2019-03-12T00:02:11.964Z,0.00
2019-03-12T00:03:11.957Z,0.00
2019-03-12T00:04:11.947Z,0.00
2019-03-12T00:05:11.928Z,0.00
2019-03-12T00:06:11.917Z,0.00
2019-03-12T00:07:12.112Z,0.00
2019-03-12T00:08:11.900Z,0.00
2019-03-12T00:09:11.887Z,0.00
2019-03-12T00:10:11.879Z,0.00
2019-03-12T00:11:11.867Z,0.00
2019-03-12T00:12:11.859Z,0.00
2019-03-12T00:13:11.891Z,0.00
2019-03-12T00:14:11.834Z,0.00
2019-03-12T00:15:11.826Z,0.00
2019-03-12T00:16:11.814Z,0.00
2019-03-12T00:17:11.808Z,0.00
2019-03-12T00:18:11.793Z,0.00
2019-03-12T00:19:11.878Z,0.00
2019-03-12T00:20:11.768Z,0.00
2019-03-12T00:21:11.758Z,0.00
2019-03-12T00:22:11.748Z,0.00
2019-03-12T00:23:11.739Z,0.00
2019-03-12T00:24:11.722Z,0.00
2019-03-12T00:25:11.866Z,0.00
2019-03-12T00:26:11.701Z,0.00
2019-03-12T00:27:11.695Z,0.00
2019-03-12T00:28:11.683Z,0.00
2019-03-12T00:29:11.673Z,0.00
2019-03-12T00:30:11.659Z,0.00
2019-03-12T00:31:11.746Z,0.00
2019-03-12T00:32:11.638Z,0.00
2019-03-12T00:33:11.626Z,0.00
2019-03-12T00:34:11.618Z,0.00
2019-03-12T00:35:11.610Z,0.00
2019-03-12T00:36:11.596Z,0.00
2019-03-12T00:37:11.631Z,0.00
2019-03-12T00:38:11.576Z,0.00
2019-03-12T00:39:11.575Z,0.00
2019-03-12T00:40:11.557Z,0.00
2019-03-12T00:41:11.542Z,0.00
2019-03-12T00:42:11.532Z,0.00
2019-03-12T00:43:11.673Z,0.00
2019-03-12T00:44:11.508Z,0.00
2019-03-12T00:45:11.502Z,0.00
2019-03-12T00:46:11.489Z,0.00
2019-03-12T00:47:11.478Z,0.00
2019-03-12T00:48:11.467Z,0.00
2019-03-12T00:49:11.509Z,0.00
2019-03-12T00:50:11.449Z,0.00
2019-03-12T00:51:11.437Z,0.00
2019-03-12T00:52:11.421Z,0.00
2019-03-12T00:53:11.412Z,0.00
2019-03-12T00:54:11.401Z,0.00
2019-03-12T00:55:11.492Z,0.00
2019-03-12T00:56:11.376Z,0.00
2019-03-12T00:57:11.371Z,0.00
2019-03-12T00:58:11.360Z,0.00
2019-03-12T00:59:11.370Z,0.00
2019-03-12T01:00:11.339Z,0.00
2019-03-12T01:01:11.524Z,0.00
2019-03-12T01:02:11.321Z,0.00
2019-03-12T01:03:11.307Z,0.00
2019-03-12T01:04:11.298Z,0.00
2019-03-12T01:05:11.281Z,0.00
2019-03-12T01:06:11.274Z,0.00
2019-03-12T01:07:11.369Z,0.00
2019-03-12T01:08:11.254Z,0.00
2019-03-12T01:09:11.240Z,0.00
2019-03-12T01:10:11.230Z,0.00
2019-03-12T01:11:11.219Z,0.00
2019-03-12T01:12:11.259Z,0.00
2019-03-12T01:13:11.195Z,0.00
2019-03-12T01:14:11.186Z,0.00
2019-03-12T01:15:11.174Z,0.00
2019-03-12T01:16:11.166Z,0.00
2019-03-12T01:17:11.154Z,0.00
2019-03-12T01:18:13.650Z,0.00
2019-03-12T01:19:11.131Z,0.00
2019-03-12T01:20:11.122Z,0.00
2019-03-12T01:21:11.110Z,0.00
2019-03-12T01:22:11.101Z,0.00
2019-03-12T01:23:11.090Z,0.00
2019-03-12T01:24:11.127Z,0.00
2019-03-12T01:25:11.067Z,0.00
2019-03-12T01:26:11.055Z,0.00
2019-03-12T01:27:11.048Z,4.00
2019-03-12T01:28:11.034Z,4.00
2019-03-12T01:29:11.175Z,4.00
2019-03-12T01:30:11.061Z,8.00
2019-03-12T01:31:11.003Z,8.00
2019-03-12T01:32:10.990Z,12.00
2019-03-12T01:33:10.981Z,12.00
2019-03-12T01:34:10.972Z,12.00
2019-03-12T01:35:11.010Z,16.00
2019-03-12T01:36:10.950Z,20.00
2019-03-12T01:37:10.940Z,24.00
2019-03-12T01:38:10.927Z,28.00
2019-03-12T01:39:10.918Z,28.00
2019-03-12T01:40:10.906Z,32.00
2019-03-12T01:41:10.960Z,36.00
2019-03-12T01:42:10.886Z,44.00
2019-03-12T01:43:10.874Z,44.00
2019-03-12T01:44:10.863Z,52.00
2019-03-12T01:45:10.853Z,56.00
2019-03-12T01:46:10.845Z,64.00
2019-03-12T01:47:10.981Z,68.00
2019-03-12T01:48:10.830Z,76.00
2019-03-12T01:49:10.812Z,84.00
2019-03-12T01:50:10.800Z,96.00
2019-03-12T01:51:10.789Z,104.00
2019-03-12T01:52:10.843Z,116.00
2019-03-12T01:53:10.819Z,128.00
2019-03-12T01:54:10.757Z,140.00
2019-03-12T01:55:10.747Z,152.00
2019-03-12T01:56:10.736Z,168.00
2019-03-12T01:57:10.726Z,180.00
2019-03-12T01:58:10.885Z,196.00
2019-03-12T01:59:10.704Z,208.00
2019-03-12T02:00:10.693Z,224.00
2019-03-12T02:01:10.680Z,240.00
2019-03-12T02:02:10.673Z,252.00
2019-03-12T02:03:10.662Z,268.00
2019-03-12T02:04:10.799Z,280.00
2019-03-12T02:05:10.744Z,300.00
2019-03-12T02:06:10.628Z,312.00
2019-03-12T02:07:10.619Z,332.00
2019-03-12T02:08:10.611Z,348.00
2019-03-12T02:09:10.596Z,368.00
2019-03-12T02:10:10.634Z,380.00
2019-03-12T02:11:10.575Z,400.00
2019-03-12T02:12:10.566Z,412.00
2019-03-12T02:13:10.557Z,424.00
2019-03-12T02:14:10.545Z,440.00
2019-03-12T02:15:10.531Z,448.00
2019-03-12T02:16:10.571Z,456.00
2019-03-12T02:17:10.511Z,464.00
2019-03-12T02:18:10.513Z,480.00
2019-03-12T02:19:10.489Z,500.00
2019-03-12T02:20:10.477Z,516.00
2019-03-12T02:21:10.469Z,544.00
2019-03-12T02:22:10.610Z,572.00
2019-03-12T02:23:10.446Z,596.00
2019-03-12T02:24:10.436Z,620.00
2019-03-12T02:25:10.425Z,644.00
2019-03-12T02:26:10.417Z,668.00
2019-03-12T02:27:10.403Z,696.00
2019-03-12T02:28:10.449Z,724.00
2019-03-12T02:29:10.385Z,756.00
2019-03-12T02:30:10.374Z,796.00
2019-03-12T02:31:10.361Z,832.00
2019-03-12T02:32:10.354Z,868.00
2019-03-12T02:33:10.343Z,908.00
2019-03-12T02:34:10.378Z,956.00
2019-03-12T02:35:10.318Z,1000.00
2019-03-12T02:36:10.309Z,1056.00
2019-03-12T02:37:10.299Z,1116.00
2019-03-12T02:38:10.292Z,1180.00
2019-03-12T02:39:10.277Z,1248.00
2019-03-12T02:40:10.468Z,1320.00
2019-03-12T02:41:10.254Z,1392.00
2019-03-12T02:42:12.706Z,1468.00
2019-03-12T02:43:10.233Z,1536.00
2019-03-12T02:44:10.224Z,1612.00
2019-03-12T02:45:10.213Z,1684.00
2019-03-12T02:46:10.251Z,1756.00
2019-03-12T02:47:10.189Z,1828.00
2019-03-12T02:48:10.180Z,1896.00
2019-03-12T02:49:10.440Z,1972.00
2019-03-12T02:50:10.157Z,2048.00
2019-03-12T02:51:10.147Z,2128.00
2019-03-12T02:52:10.189Z,2192.00
2019-03-12T02:53:10.124Z,2260.00
2019-03-12T02:54:10.120Z,2316.00
2019-03-12T02:55:10.105Z,2372.00
2019-03-12T02:56:10.092Z,2424.00
2019-03-12T02:57:10.102Z,2484.00
2019-03-12T02:58:10.220Z,2548.00
2019-03-12T02:59:10.058Z,2592.00
2019-03-12T03:00:10.051Z,2644.00
2019-03-12T03:01:10.039Z,2708.00
2019-03-12T03:02:10.033Z,2780.00
2019-03-12T03:03:10.017Z,2864.00
2019-03-12T03:04:10.057Z,2936.00
2019-03-12T03:05:09.995Z,3008.00
2019-03-12T03:06:09.988Z,3076.00
2019-03-12T03:07:09.972Z,3128.00
2019-03-12T03:08:09.963Z,3188.00
2019-03-12T03:09:09.954Z,3252.00
2019-03-12T03:10:09.992Z,3320.00
2019-03-12T03:11:09.931Z,3388.00
2019-03-12T03:12:09.919Z,3464.00
2019-03-12T03:13:09.918Z,3536.00
2019-03-12T03:14:09.898Z,3604.00
2019-03-12T03:15:09.899Z,3660.00
2019-03-12T03:16:10.029Z,3696.00
2019-03-12T03:17:09.868Z,3736.00
2019-03-12T03:18:09.855Z,3776.00
2019-03-12T03:19:09.847Z,3836.00
2019-03-12T03:20:09.834Z,3904.00
2019-03-12T03:21:09.953Z,3980.00
2019-03-12T03:22:09.865Z,4052.00
2019-03-12T03:23:09.801Z,4104.00
2019-03-12T03:24:09.791Z,4172.00
2019-03-12T03:25:09.920Z,4276.00
2019-03-12T03:26:09.771Z,4404.00
2019-03-12T03:27:09.763Z,4552.00
2019-03-12T03:28:09.800Z,4728.00
2019-03-12T03:29:09.737Z,4932.00
2019-03-12T03:30:09.740Z,5180.00
2019-03-12T03:31:09.736Z,5464.00
2019-03-12T03:32:09.711Z,5752.00
2019-03-12T03:33:09.697Z,6020.00
2019-03-12T03:34:09.835Z,6324.00
2019-03-12T03:35:09.727Z,6596.00
2019-03-12T03:36:09.663Z,6788.00
2019-03-12T03:37:09.664Z,7024.00
2019-03-12T03:38:09.670Z,7132.00
2019-03-12T03:39:09.640Z,7160.00
2019-03-12T03:40:09.684Z,7224.00
2019-03-12T03:41:09.616Z,7304.00
2019-03-12T03:42:09.602Z,7324.00
2019-03-12T03:43:09.592Z,7320.00
2019-03-12T03:44:09.581Z,7424.00
2019-03-12T03:45:09.568Z,7568.00
2019-03-12T03:46:09.667Z,7736.00
2019-03-12T03:47:09.549Z,7932.00
2019-03-12T03:48:09.540Z,8148.00
2019-03-12T03:49:09.535Z,8356.00
2019-03-12T03:50:09.518Z,8528.00
2019-03-12T03:51:09.586Z,8752.00
2019-03-12T03:52:09.649Z,8992.00
2019-03-12T03:53:09.515Z,9200.00
2019-03-12T03:54:09.478Z,9300.00
2019-03-12T03:55:09.466Z,9416.00
2019-03-12T03:56:09.455Z,9516.00
2019-03-12T03:57:09.445Z,9588.00
2019-03-12T03:58:09.485Z,9624.00
2019-03-12T03:59:09.425Z,9660.00
2019-03-12T04:00:09.411Z,9708.00
2019-03-12T04:01:09.404Z,9752.00
2019-03-12T04:02:09.397Z,9724.00
2019-03-12T04:03:09.382Z,9712.00
2019-03-12T04:04:09.424Z,9592.00
2019-03-12T04:05:09.360Z,9436.00
2019-03-12T04:06:09.350Z,9424.00
2019-03-12T04:07:09.341Z,9360.00
2019-03-12T04:08:09.328Z,9320.00
2019-03-12T04:09:09.315Z,9316.00
2019-03-12T04:10:09.355Z,9300.00
2019-03-12T04:11:09.293Z,9336.00
2019-03-12T04:12:09.281Z,9408.00
2019-03-12T04:13:09.271Z,9524.00
2019-03-12T04:14:09.258Z,9560.00
2019-03-12T04:15:09.402Z,9600.00
2019-03-12T04:16:09.241Z,9620.00
2019-03-12T04:17:09.227Z,9660.00
2019-03-12T04:18:09.218Z,9672.00
2019-03-12T04:19:09.208Z,9688.00
2019-03-12T04:20:09.213Z,9680.00
2019-03-12T04:21:09.238Z,9620.00
2019-03-12T04:22:09.174Z,9548.00
2019-03-12T04:23:09.171Z,9464.00
2019-03-12T04:24:09.155Z,9500.00
2019-03-12T04:25:09.147Z,9504.00
2019-03-12T04:26:09.134Z,9540.00
2019-03-12T04:27:09.177Z,9560.00
2019-03-12T04:28:09.117Z,9588.00
2019-03-12T04:29:09.101Z,9620.00
2019-03-12T04:30:09.100Z,9548.00
2019-03-12T04:31:09.081Z,9384.00
2019-03-12T04:32:09.081Z,9360.00
2019-03-12T04:33:09.212Z,9336.00
2019-03-12T04:34:09.049Z,9452.00
2019-03-12T04:35:09.042Z,9432.00
2019-03-12T04:36:09.029Z,9408.00
2019-03-12T04:37:09.019Z,9360.00
2019-03-12T04:38:09.008Z,9264.00
2019-03-12T04:39:09.049Z,9164.00
2019-03-12T04:40:08.989Z,9020.00
2019-03-12T04:41:08.978Z,8916.00
2019-03-12T04:42:08.967Z,8848.00
2019-03-12T04:43:08.957Z,8796.00
2019-03-12T04:44:08.949Z,8700.00
2019-03-12T04:45:08.986Z,8636.00
2019-03-12T04:46:08.925Z,8560.00
2019-03-12T04:47:08.914Z,8576.00
2019-03-12T04:48:08.903Z,8616.00
2019-03-12T04:49:08.893Z,8664.00
2019-03-12T04:50:08.884Z,8724.00
2019-03-12T04:51:09.824Z,8816.00
2019-03-12T04:52:08.869Z,8948.00
2019-03-12T04:53:08.853Z,9028.00
2019-03-12T04:54:08.843Z,9060.00
2019-03-12T04:55:08.832Z,9076.00
2019-03-12T04:56:08.821Z,9060.00
2019-03-12T04:57:08.861Z,9032.00
2019-03-12T04:58:08.801Z,8984.00
2019-03-12T04:59:08.790Z,8948.00
2019-03-12T05:00:08.779Z,8944.00
2019-03-12T05:01:08.770Z,8924.00
2019-03-12T05:02:08.760Z,8896.00
2019-03-12T05:03:08.799Z,8848.00
2019-03-12T05:04:08.740Z,8808.00
2019-03-12T05:05:08.729Z,8764.00
2019-03-12T05:06:08.719Z,8724.00
2019-03-12T05:07:08.708Z,8688.00
2019-03-12T05:08:08.699Z,8664.00
2019-03-12T05:09:08.840Z,8644.00
2019-03-12T05:10:08.677Z,8636.00
2019-03-12T05:11:08.672Z,8612.00
2019-03-12T05:12:08.656Z,8576.00
2019-03-12T05:13:08.647Z,8532.00
2019-03-12T05:14:08.636Z,8480.00
2019-03-12T05:15:08.676Z,8440.00
2019-03-12T05:16:08.627Z,8396.00
2019-03-12T05:17:08.606Z,8372.00
2019-03-12T05:18:08.595Z,8348.00
2019-03-12T05:19:08.586Z,8332.00
2019-03-12T05:20:08.577Z,8260.00
2019-03-12T05:21:08.665Z,8144.00
2019-03-12T05:22:08.553Z,8056.00
2019-03-12T05:23:08.545Z,8008.00
2019-03-12T05:24:08.533Z,7964.00
2019-03-12T05:25:08.523Z,7904.00
2019-03-12T05:26:08.513Z,7852.00
2019-03-12T05:27:08.651Z,7812.00
2019-03-12T05:28:08.492Z,7776.00
2019-03-12T05:29:08.484Z,7756.00
2019-03-12T05:30:08.470Z,7748.00
2019-03-12T05:31:08.462Z,7740.00
2019-03-12T05:32:08.450Z,7728.00
2019-03-12T05:33:08.494Z,7712.00
2019-03-12T05:34:08.430Z,7708.00
2019-03-12T05:35:08.419Z,7672.00
2019-03-12T05:36:08.417Z,7656.00
2019-03-12T05:37:08.402Z,7628.00
2019-03-12T05:38:08.394Z,7600.00
2019-03-12T05:39:08.430Z,7576.00
2019-03-12T05:40:08.369Z,7552.00
2019-03-12T05:41:08.359Z,7488.00
2019-03-12T05:42:08.348Z,7472.00
2019-03-12T05:43:08.338Z,7464.00
2019-03-12T05:44:08.326Z,7424.00
2019-03-12T05:45:08.467Z,7440.00
2019-03-12T05:46:08.308Z,7432.00
2019-03-12T05:47:08.452Z,7424.00
2019-03-12T05:48:08.286Z,7416.00
2019-03-12T05:49:08.275Z,7420.00
2019-03-12T05:50:08.266Z,7408.00
2019-03-12T05:51:08.304Z,7412.00
2019-03-12T05:52:08.248Z,7436.00
2019-03-12T05:53:08.234Z,7460.00
2019-03-12T05:54:08.222Z,7468.00
2019-03-12T05:55:08.214Z,7464.00
2019-03-12T05:56:08.202Z,7452.00
2019-03-12T05:57:08.244Z,7448.00
2019-03-12T05:58:08.181Z,7452.00
2019-03-12T05:59:08.170Z,7432.00
2019-03-12T06:00:08.237Z,7412.00
2019-03-12T06:01:08.150Z,7384.00
2019-03-12T06:02:08.143Z,7372.00
2019-03-12T06:03:08.280Z,7376.00
2019-03-12T06:04:08.119Z,7392.00
2019-03-12T06:05:08.111Z,7384.00
2019-03-12T06:06:08.102Z,7372.00
2019-03-12T06:07:08.085Z,7412.00
2019-03-12T06:08:08.079Z,7352.00
2019-03-12T06:09:08.118Z,7148.00
2019-03-12T06:10:08.059Z,6992.00
2019-03-12T06:11:08.047Z,6704.00
2019-03-12T06:12:08.038Z,6496.00
2019-03-12T06:13:08.027Z,6396.00
2019-03-12T06:14:08.014Z,6372.00
2019-03-12T06:15:08.108Z,6420.00
2019-03-12T06:16:07.995Z,6548.00
2019-03-12T06:17:07.988Z,6684.00
2019-03-12T06:18:07.973Z,6776.00
2019-03-12T06:19:07.964Z,6816.00
2019-03-12T06:20:07.952Z,6832.00
2019-03-12T06:21:08.093Z,6836.00
2019-03-12T06:22:11.275Z,6836.00
2019-03-12T06:23:07.922Z,6832.00
2019-03-12T06:24:07.940Z,6836.00
2019-03-12T06:25:07.902Z,6840.00
2019-03-12T06:26:07.900Z,6820.00
2019-03-12T06:27:08.130Z,6768.00
2019-03-12T06:28:07.871Z,6632.00
2019-03-12T06:29:07.863Z,6524.00
2019-03-12T06:30:07.849Z,6392.00
2019-03-12T06:31:07.840Z,6384.00
2019-03-12T06:32:07.828Z,6264.00
2019-03-12T06:33:07.867Z,6192.00
2019-03-12T06:34:07.812Z,6120.00
2019-03-12T06:35:07.800Z,6080.00
2019-03-12T06:36:07.788Z,6056.00
2019-03-12T06:37:07.776Z,6060.00
2019-03-12T06:38:07.767Z,6076.00
2019-03-12T06:39:07.804Z,6124.00
2019-03-12T06:40:07.745Z,6252.00
2019-03-12T06:41:07.735Z,6388.00
2019-03-12T06:42:08.182Z,6500.00
2019-03-12T06:43:07.711Z,6548.00
2019-03-12T06:44:07.709Z,6532.00
2019-03-12T06:45:07.841Z,6572.00
2019-03-12T06:46:07.686Z,6640.00
2019-03-12T06:47:07.673Z,6688.00
2019-03-12T06:48:07.662Z,6716.00
2019-03-12T06:49:07.652Z,6792.00
2019-03-12T06:50:07.692Z,6840.00
2019-03-12T06:51:07.640Z,6864.00
2019-03-12T06:52:07.626Z,6880.00
2019-03-12T06:53:07.612Z,6840.00
2019-03-12T06:54:07.600Z,6824.00
2019-03-12T06:55:07.611Z,6796.00
2019-03-12T06:56:07.632Z,6784.00
2019-03-12T06:57:07.572Z,6832.00
2019-03-12T06:58:07.557Z,6836.00
2019-03-12T06:59:07.548Z,6800.00
2019-03-12T07:00:07.538Z,6684.00
2019-03-12T07:01:08.306Z,6564.00
2019-03-12T07:02:07.516Z,6400.00
2019-03-12T07:03:07.505Z,6320.00
2019-03-12T07:04:07.496Z,6344.00
2019-03-12T07:05:07.488Z,6384.00
2019-03-12T07:06:07.478Z,6456.00
2019-03-12T07:07:11.579Z,6420.00
2019-03-12T07:08:07.457Z,6388.00
2019-03-12T07:09:07.445Z,6296.00
2019-03-12T07:10:07.434Z,6180.00
2019-03-12T07:11:07.423Z,6116.00
2019-03-12T07:12:07.412Z,6052.00
2019-03-12T07:13:07.455Z,5992.00
2019-03-12T07:14:07.391Z,5936.00
2019-03-12T07:15:07.383Z,5928.00
2019-03-12T07:16:07.371Z,5924.00
2019-03-12T07:17:07.360Z,5996.00
2019-03-12T07:18:07.352Z,6032.00
2019-03-12T07:19:07.490Z,6048.00
2019-03-12T07:20:07.330Z,6064.00
2019-03-12T07:21:07.320Z,6108.00
2019-03-12T07:22:07.312Z,6148.00
2019-03-12T07:23:07.299Z,6184.00
2019-03-12T07:24:07.288Z,6232.00
2019-03-12T07:25:07.330Z,6272.00
2019-03-12T07:26:07.268Z,6348.00
2019-03-12T07:27:07.258Z,6412.00
2019-03-12T07:28:07.249Z,6440.00
2019-03-12T07:29:07.239Z,6444.00
2019-03-12T07:30:07.228Z,6408.00
2019-03-12T07:31:07.290Z,6376.00
2019-03-12T07:32:07.210Z,6376.00
2019-03-12T07:33:07.200Z,6372.00
2019-03-12T07:34:07.191Z,6336.00
2019-03-12T07:35:07.181Z,6292.00
2019-03-12T07:36:07.165Z,6248.00
2019-03-12T07:37:07.306Z,6200.00
2019-03-12T07:38:07.146Z,6164.00
2019-03-12T07:39:07.136Z,6152.00
2019-03-12T07:40:07.128Z,6144.00
2019-03-12T07:41:07.118Z,6124.00
2019-03-12T07:42:07.111Z,6088.00
2019-03-12T07:43:07.152Z,6036.00
2019-03-12T07:44:07.313Z,5980.00
2019-03-12T07:45:07.072Z,5952.00
2019-03-12T07:46:07.064Z,5924.00
2019-03-12T07:47:07.052Z,5908.00
2019-03-12T07:48:07.087Z,5884.00
2019-03-12T07:49:07.032Z,5856.00
2019-03-12T07:50:07.017Z,5812.00
2019-03-12T07:51:07.009Z,5776.00
2019-03-12T07:52:08.766Z,5752.00
2019-03-12T07:53:06.986Z,5732.00
2019-03-12T07:54:07.074Z,5684.00
2019-03-12T07:55:06.964Z,5624.00
2019-03-12T07:56:06.953Z,5564.00
2019-03-12T07:57:06.939Z,5488.00
2019-03-12T07:58:06.929Z,5440.00
2019-03-12T07:59:09.040Z,5484.00
2019-03-12T08:00:09.920Z,5512.00
2019-03-12T08:01:06.898Z,5500.00
2019-03-12T08:02:06.886Z,5488.00
2019-03-12T08:03:06.876Z,5464.00
2019-03-12T08:04:06.865Z,5464.00
2019-03-12T08:05:06.908Z,5472.00
2019-03-12T08:06:06.847Z,5476.00
2019-03-12T08:07:06.831Z,5468.00
2019-03-12T08:08:06.820Z,5436.00
2019-03-12T08:09:06.812Z,5396.00
2019-03-12T08:10:06.801Z,5372.00
2019-03-12T08:11:06.889Z,5356.00
2019-03-12T08:12:06.778Z,5336.00
2019-03-12T08:13:06.765Z,5324.00
2019-03-12T08:14:06.758Z,5304.00
2019-03-12T08:15:06.746Z,5288.00
2019-03-12T08:16:06.738Z,5284.00
2019-03-12T08:17:06.875Z,5280.00
2019-03-12T08:18:06.712Z,5276.00
2019-03-12T08:19:06.702Z,5276.00
2019-03-12T08:20:06.691Z,5292.00
2019-03-12T08:21:06.758Z,5312.00
2019-03-12T08:22:06.677Z,5336.00
2019-03-12T08:23:06.710Z,5356.00
2019-03-12T08:24:06.745Z,5356.00
2019-03-12T08:25:06.636Z,5364.00
2019-03-12T08:26:06.723Z,5380.00
2019-03-12T08:27:06.616Z,5424.00
2019-03-12T08:28:06.602Z,5468.00
2019-03-12T08:29:06.643Z,5504.00
2019-03-12T08:30:06.579Z,5504.00
2019-03-12T08:31:06.573Z,5456.00
2019-03-12T08:32:06.562Z,5400.00
2019-03-12T08:33:06.547Z,5368.00
2019-03-12T08:34:06.545Z,5372.00
2019-03-12T08:35:06.727Z,5388.00
2019-03-12T08:36:06.521Z,5412.00
2019-03-12T08:37:06.507Z,5448.00
2019-03-12T08:38:06.496Z,5452.00
2019-03-12T08:39:06.485Z,5436.00
2019-03-12T08:40:06.476Z,5384.00
2019-03-12T08:41:06.513Z,5336.00
2019-03-12T08:42:06.452Z,5296.00
2019-03-12T08:43:06.441Z,5268.00
2019-03-12T08:44:06.432Z,5252.00
2019-03-12T08:45:06.418Z,5232.00
2019-03-12T08:46:06.410Z,5232.00
2019-03-12T08:47:06.447Z,5232.00
2019-03-12T08:48:06.385Z,5216.00
2019-03-12T08:49:06.375Z,5196.00
2019-03-12T08:50:06.362Z,5188.00
2019-03-12T08:51:06.353Z,5192.00
2019-03-12T08:52:06.344Z,5244.00
2019-03-12T08:53:06.480Z,5316.00
2019-03-12T08:54:06.318Z,5352.00
2019-03-12T08:55:06.313Z,5336.00
2019-03-12T08:56:06.295Z,5320.00
2019-03-12T08:57:06.293Z,5364.00
2019-03-12T08:58:06.327Z,5420.00
2019-03-12T08:59:06.268Z,5428.00
2019-03-12T09:00:06.256Z,5400.00
2019-03-12T09:01:06.245Z,5364.00
2019-03-12T09:02:06.234Z,5348.00
2019-03-12T09:03:06.271Z,5384.00
2019-03-12T09:04:06.214Z,5436.00
2019-03-12T09:05:06.198Z,5484.00
2019-03-12T09:06:06.189Z,5528.00
2019-03-12T09:07:06.179Z,5544.00
2019-03-12T09:08:06.169Z,5572.00
2019-03-12T09:09:06.306Z,5580.00
2019-03-12T09:10:06.148Z,5576.00
2019-03-12T09:11:06.137Z,5592.00
2019-03-12T09:12:06.122Z,5640.00
2019-03-12T09:13:06.111Z,5656.00
2019-03-12T09:14:06.103Z,5600.00
2019-03-12T09:15:06.146Z,5524.00
2019-03-12T09:16:06.085Z,5420.00
2019-03-12T09:17:06.077Z,5360.00
2019-03-12T09:18:06.058Z,5296.00
2019-03-12T09:19:06.046Z,5208.00
2019-03-12T09:20:06.039Z,5148.00
2019-03-12T09:21:06.077Z,5108.00
2019-03-12T09:22:06.014Z,5084.00
2019-03-12T09:23:06.002Z,5092.00
2019-03-12T09:24:05.998Z,5116.00
2019-03-12T09:25:05.983Z,5180.00
2019-03-12T09:26:05.987Z,5212.00
2019-03-12T09:27:06.214Z,5236.00
2019-03-12T09:28:05.949Z,5240.00
2019-03-12T09:29:05.939Z,5208.00
2019-03-12T09:30:06.012Z,5212.00
2019-03-12T09:31:05.919Z,5216.00
2019-03-12T09:32:05.906Z,5184.00
2019-03-12T09:33:05.942Z,5168.00
2019-03-12T09:34:05.886Z,5180.00
2019-03-12T09:35:05.872Z,5112.00
2019-03-12T09:36:05.866Z,5044.00
2019-03-12T09:37:05.853Z,4976.00
2019-03-12T09:38:05.845Z,4932.00
2019-03-12T09:39:05.888Z,4916.00
2019-03-12T09:40:05.825Z,4916.00
2019-03-12T09:41:05.809Z,4932.00
2019-03-12T09:42:05.799Z,4976.00
2019-03-12T09:43:05.785Z,5000.00
2019-03-12T09:44:05.777Z,4976.00
2019-03-12T09:45:05.916Z,4956.00
2019-03-12T09:46:05.753Z,4932.00
2019-03-12T09:47:05.742Z,4900.00
2019-03-12T09:48:05.737Z,4852.00
2019-03-12T09:49:05.728Z,4844.00
2019-03-12T09:50:05.714Z,4812.00
2019-03-12T09:51:05.752Z,4768.00
2019-03-12T09:52:05.687Z,4708.00
2019-03-12T09:53:05.680Z,4680.00
2019-03-12T09:54:05.667Z,4748.00
2019-03-12T09:55:05.658Z,4892.00
2019-03-12T09:56:05.646Z,5044.00
2019-03-12T09:57:05.686Z,5136.00
2019-03-12T09:58:05.623Z,5152.00
2019-03-12T09:59:05.617Z,5196.00
2019-03-12T10:00:15.688Z,5240.00
2019-03-12T10:01:30.402Z,5272.00
2019-03-12T10:02:30.507Z,5296.00
2019-03-12T10:03:30.392Z,5324.00
2019-03-12T10:04:30.439Z,5332.00
2019-03-12T10:05:30.362Z,5348.00
2019-03-12T10:06:30.351Z,5396.00
2019-03-12T10:07:30.337Z,5452.00
2019-03-12T10:08:30.431Z,5504.00
2019-03-12T10:09:30.318Z,5544.00
2019-03-12T10:10:30.313Z,5548.00
2019-03-12T10:11:30.295Z,5528.00
2019-03-12T10:12:30.287Z,5488.00
2019-03-12T10:13:30.430Z,5428.00
2019-03-12T10:14:30.265Z,5364.00
2019-03-12T10:15:30.257Z,5312.00
2019-03-12T10:16:30.354Z,5256.00
2019-03-12T10:17:30.230Z,5184.00
2019-03-12T10:18:30.220Z,5080.00
2019-03-12T10:19:30.260Z,4992.00
2019-03-12T10:20:30.196Z,4928.00
2019-03-12T10:21:30.196Z,4880.00
2019-03-12T10:22:30.175Z,4820.00
2019-03-12T10:23:30.169Z,4756.00
2019-03-12T10:24:30.202Z,4684.00
2019-03-12T10:25:30.148Z,4612.00
2019-03-12T10:26:30.137Z,4536.00
2019-03-12T10:27:30.122Z,4480.00
2019-03-12T10:28:30.114Z,4436.00
2019-03-12T10:29:30.402Z,4412.00
2019-03-12T10:30:30.092Z,4404.00
2019-03-12T10:31:30.077Z,4400.00
2019-03-12T10:32:30.067Z,4400.00
2019-03-12T10:33:30.058Z,4388.00
2019-03-12T10:34:30.389Z,4376.00
2019-03-12T10:35:30.036Z,4376.00
2019-03-12T10:36:31.127Z,4364.00
2019-03-12T10:37:30.017Z,4360.00
2019-03-12T10:38:30.004Z,4332.00
2019-03-12T10:39:29.990Z,4304.00
2019-03-12T10:40:30.030Z,4248.00
2019-03-12T10:41:30.015Z,4200.00
2019-03-12T10:42:30.002Z,4172.00
2019-03-12T10:43:29.991Z,4144.00
2019-03-12T10:44:29.976Z,4124.00
2019-03-12T10:45:30.120Z,4112.00
2019-03-12T10:46:29.954Z,4076.00
2019-03-12T10:47:29.945Z,3980.00
2019-03-12T10:48:29.930Z,3940.00
2019-03-12T10:49:37.279Z,3976.00
2019-03-12T10:50:54.781Z,4136.00
2019-03-12T10:51:54.764Z,4260.00
2019-03-12T10:52:54.955Z,4348.00
2019-03-12T10:53:54.743Z,4376.00
2019-03-12T10:54:54.735Z,4384.00
2019-03-12T10:55:54.803Z,4388.00
2019-03-12T10:56:54.708Z,4384.00
2019-03-12T10:57:54.698Z,4396.00
2019-03-12T10:58:54.689Z,4384.00
2019-03-12T10:59:54.673Z,4340.00
2019-03-12T11:00:54.662Z,4268.00
2019-03-12T11:01:54.754Z,4176.00
2019-03-12T11:02:54.646Z,4108.00
2019-03-12T11:03:54.633Z,4072.00
2019-03-12T11:04:54.823Z,4076.00
2019-03-12T11:05:54.612Z,4108.00
2019-03-12T11:06:54.595Z,4148.00
2019-03-12T11:07:54.634Z,4144.00
2019-03-12T11:08:54.575Z,4116.00
2019-03-12T11:09:54.586Z,4068.00
2019-03-12T11:10:54.554Z,4024.00
2019-03-12T11:11:54.542Z,3952.00
2019-03-12T11:12:54.534Z,3908.00
2019-03-12T11:13:54.724Z,3896.00
2019-03-12T11:14:54.516Z,3900.00
2019-03-12T11:15:54.503Z,3908.00
2019-03-12T11:16:54.488Z,3928.00
2019-03-12T11:17:54.476Z,3960.00
2019-03-12T11:18:54.466Z,3980.00
2019-03-12T11:19:54.506Z,3984.00
2019-03-12T11:20:54.462Z,3980.00
2019-03-12T11:21:54.436Z,3980.00
2019-03-12T11:22:54.421Z,3988.00
2019-03-12T11:23:54.410Z,4000.00
2019-03-12T11:24:54.403Z,4012.00
2019-03-12T11:25:54.442Z,4000.00
2019-03-12T11:26:54.377Z,3940.00
2019-03-12T11:27:54.369Z,3872.00
2019-03-12T11:28:54.359Z,3828.00
2019-03-12T11:29:54.344Z,3800.00
2019-03-12T11:30:54.339Z,3752.00
2019-03-12T11:31:54.774Z,3700.00
2019-03-12T11:32:54.311Z,3648.00
2019-03-12T11:33:54.303Z,3600.00
2019-03-12T11:34:54.290Z,3548.00
2019-03-12T11:35:54.329Z,3504.00
2019-03-12T11:36:54.268Z,3472.00
2019-03-12T11:37:54.325Z,3456.00
2019-03-12T11:38:54.277Z,3448.00
2019-03-12T11:39:54.228Z,3432.00
2019-03-12T11:40:54.277Z,3440.00
2019-03-12T11:41:54.212Z,3436.00
2019-03-12T11:42:54.237Z,3396.00
2019-03-12T11:43:54.290Z,3340.00
2019-03-12T11:44:54.206Z,3288.00
2019-03-12T11:45:54.169Z,3244.00
2019-03-12T11:46:54.177Z,3204.00
2019-03-12T11:47:54.147Z,3168.00
2019-03-12T11:48:54.135Z,3136.00
2019-03-12T11:49:54.624Z,3104.00
2019-03-12T11:50:54.118Z,3076.00
2019-03-12T11:51:54.105Z,3044.00
2019-03-12T11:52:57.657Z,3008.00
2019-03-12T11:53:54.088Z,2980.00
2019-03-12T11:54:54.068Z,2952.00
2019-03-12T11:55:54.229Z,2920.00
2019-03-12T11:56:54.072Z,2900.00
2019-03-12T11:57:54.322Z,2888.00
2019-03-12T11:58:54.025Z,2884.00
2019-03-12T11:59:54.290Z,2884.00
2019-03-12T12:00:54.006Z,2876.00
2019-03-12T12:01:54.097Z,2864.00
2019-03-12T12:02:59.739Z,2836.00
2019-03-12T12:04:18.780Z,2776.00
2019-03-12T12:05:18.771Z,2728.00
2019-03-12T12:06:18.757Z,2680.00
2019-03-12T12:07:18.998Z,2636.00
2019-03-12T12:08:18.777Z,2600.00
2019-03-12T12:09:18.734Z,2556.00
2019-03-12T12:10:18.681Z,2516.00
2019-03-12T12:11:18.708Z,2480.00
2019-03-12T12:12:18.696Z,2436.00
2019-03-12T12:13:18.737Z,2388.00
2019-03-12T12:14:18.671Z,2336.00
2019-03-12T12:15:18.660Z,2284.00
2019-03-12T12:16:18.650Z,2240.00
2019-03-12T12:17:18.635Z,2208.00